createdAt,value
2022-12-12T00:02:21.420Z,5.50
2022-12-12T00:04:48.586Z,5.57
2022-12-12T00:07:15.510Z,5.65
2022-12-12T00:09:42.430Z,5.68
2022-12-12T00:12:09.474Z,5.64
2022-12-12T00:14:36.403Z,5.59
2022-12-12T00:17:05.003Z,5.58
2022-12-12T00:19:31.958Z,5.60
2022-12-12T00:21:59.266Z,5.66
2022-12-12T00:24:26.273Z,5.65
2022-12-12T00:26:53.252Z,5.64
2022-12-12T00:29:20.231Z,5.60
2022-12-12T00:31:47.207Z,5.53
2022-12-12T00:34:15.461Z,5.42
2022-12-12T00:36:42.646Z,5.31
2022-12-12T00:39:15.185Z,5.20
2022-12-12T00:41:45.107Z,5.02
2022-12-12T00:44:12.717Z,4.89
2022-12-12T00:46:40.088Z,4.82
2022-12-12T00:49:07.095Z,4.79
2022-12-12T00:51:35.630Z,4.79
2022-12-12T00:54:02.559Z,4.76
2022-12-12T00:56:30.799Z,4.72
2022-12-12T00:58:58.032Z,4.68
2022-12-12T01:01:29.487Z,4.66
2022-12-12T01:03:57.266Z,4.67
2022-12-12T01:06:24.631Z,4.69
2022-12-12T01:08:56.341Z,4.67
2022-12-12T01:11:23.690Z,4.63
2022-12-12T01:13:54.302Z,4.60
2022-12-12T01:16:22.491Z,4.59
2022-12-12T01:18:50.186Z,4.60
2022-12-12T01:21:19.709Z,4.58
2022-12-12T01:23:48.070Z,4.53
2022-12-12T01:26:20.209Z,4.44
2022-12-12T01:28:47.851Z,4.38
2022-12-12T01:31:15.722Z,4.34
2022-12-12T01:33:45.974Z,4.28
2022-12-12T01:36:16.852Z,4.25
2022-12-12T01:38:45.000Z,4.22
2022-12-12T01:41:13.595Z,4.20
2022-12-12T01:43:42.420Z,4.19
2022-12-12T01:46:47.056Z,4.09
2022-12-12T01:49:22.670Z,4.07
2022-12-12T01:51:53.654Z,4.09
2022-12-12T01:54:27.186Z,4.09
2022-12-12T01:56:58.391Z,4.09
2022-12-12T01:59:29.406Z,4.08
2022-12-12T02:01:57.195Z,4.05
2022-12-12T02:04:27.761Z,4.03
2022-12-12T02:06:56.181Z,3.99
2022-12-12T02:09:25.762Z,4.00
2022-12-12T02:11:56.561Z,4.02
2022-12-12T02:14:30.258Z,4.05
2022-12-12T02:17:23.040Z,4.09
2022-12-12T02:20:52.300Z,4.10
2022-12-12T02:23:50.914Z,4.07
2022-12-12T02:27:12.761Z,4.00
2022-12-12T02:30:09.406Z,3.96
2022-12-12T02:33:09.850Z,3.95
2022-12-12T02:35:51.522Z,3.89
2022-12-12T02:38:31.303Z,3.85
2022-12-12T02:41:15.416Z,3.90
2022-12-12T02:43:56.138Z,4.00
2022-12-12T02:46:31.219Z,4.08
2022-12-12T02:49:04.653Z,4.15
2022-12-12T02:51:34.402Z,4.18
2022-12-12T02:54:04.058Z,4.20
2022-12-12T02:56:54.614Z,4.16
2022-12-12T02:59:27.525Z,4.14
2022-12-12T03:02:48.018Z,4.04
2022-12-12T03:06:01.154Z,3.94
2022-12-12T03:08:49.921Z,3.87
2022-12-12T03:11:38.004Z,3.82
2022-12-12T03:14:17.159Z,3.80
2022-12-12T03:16:56.233Z,3.80
2022-12-12T03:19:29.046Z,3.84
2022-12-12T03:22:05.336Z,3.82
2022-12-12T03:24:43.011Z,3.80
2022-12-12T03:27:18.594Z,3.71
2022-12-12T03:29:54.102Z,3.62
2022-12-12T03:32:28.152Z,3.54
2022-12-12T03:35:02.390Z,3.53
2022-12-12T03:37:35.649Z,3.51
2022-12-12T03:40:10.194Z,3.46
2022-12-12T03:42:44.397Z,3.42
2022-12-12T03:45:20.182Z,3.39
2022-12-12T03:47:54.061Z,3.46
2022-12-12T03:50:25.100Z,3.49
2022-12-12T03:53:01.265Z,3.50
2022-12-12T03:55:36.888Z,3.57
2022-12-12T03:58:11.519Z,3.66
2022-12-12T04:00:43.899Z,3.69
2022-12-12T04:03:21.410Z,3.73
2022-12-12T04:06:17.364Z,3.78
2022-12-12T04:09:05.519Z,3.83
2022-12-12T04:11:59.137Z,3.88
2022-12-12T04:15:03.669Z,3.92
2022-12-12T04:17:41.178Z,3.98
2022-12-12T04:20:40.815Z,4.07
2022-12-12T04:23:21.316Z,4.14
2022-12-12T04:26:23.581Z,4.23
2022-12-12T04:29:02.768Z,4.30
2022-12-12T04:31:35.537Z,4.37
2022-12-12T04:34:12.257Z,4.43
2022-12-12T04:36:43.763Z,4.52
2022-12-12T04:39:14.499Z,4.62
2022-12-12T04:41:46.617Z,4.64
2022-12-12T04:44:17.592Z,4.63
2022-12-12T04:46:49.167Z,4.55
2022-12-12T04:49:22.056Z,4.44
2022-12-12T04:51:55.872Z,4.34
2022-12-12T04:54:32.769Z,4.24
2022-12-12T04:57:07.803Z,4.16
2022-12-12T04:59:35.541Z,4.08
2022-12-12T05:02:14.920Z,3.97
2022-12-12T05:04:49.370Z,3.89
2022-12-12T05:07:28.060Z,3.82
2022-12-12T05:09:56.872Z,3.78
2022-12-12T05:12:25.201Z,3.71
2022-12-12T05:14:52.154Z,3.67
2022-12-12T05:17:30.927Z,3.60
2022-12-12T05:19:58.778Z,3.54
2022-12-12T05:22:25.797Z,3.54
2022-12-12T05:24:52.733Z,3.51
2022-12-12T05:27:19.684Z,3.48
2022-12-12T05:29:47.985Z,3.47
2022-12-12T05:32:14.943Z,3.46
2022-12-12T05:34:41.988Z,3.46
2022-12-12T05:37:08.917Z,3.44
2022-12-12T05:39:36.227Z,3.42
2022-12-12T05:42:03.428Z,3.42
2022-12-12T05:44:30.427Z,3.44
2022-12-12T05:46:58.750Z,3.47
2022-12-12T05:49:32.266Z,3.46
2022-12-12T05:51:59.724Z,3.45
2022-12-12T05:54:26.752Z,3.45
2022-12-12T05:56:53.697Z,3.43
2022-12-12T05:59:20.879Z,3.41
2022-12-12T06:01:47.908Z,3.39
2022-12-12T06:04:16.261Z,3.34
2022-12-12T06:06:43.395Z,3.32
2022-12-12T06:09:10.361Z,3.33
2022-12-12T06:11:37.333Z,3.34
2022-12-12T06:14:04.612Z,3.38
2022-12-12T06:16:31.607Z,3.40
2022-12-12T06:18:58.608Z,3.45
2022-12-12T06:21:27.543Z,3.48
2022-12-12T06:23:54.507Z,3.46
2022-12-12T06:26:22.192Z,3.47
2022-12-12T06:28:49.788Z,3.46
2022-12-12T06:31:17.797Z,3.45
2022-12-12T06:33:45.295Z,3.45
2022-12-12T06:36:16.502Z,3.45
2022-12-12T06:38:45.045Z,3.44
2022-12-12T06:41:14.409Z,3.43
2022-12-12T06:43:44.766Z,3.40
2022-12-12T06:46:16.746Z,3.40
2022-12-12T06:48:44.180Z,3.42
2022-12-12T06:51:17.233Z,3.42
2022-12-12T06:53:45.671Z,3.45
2022-12-12T06:56:15.518Z,3.47
2022-12-12T06:58:43.107Z,3.51
2022-12-12T07:01:12.286Z,3.51
2022-12-12T07:03:40.344Z,3.52
2022-12-12T07:06:07.982Z,3.50
2022-12-12T07:08:36.126Z,3.50
2022-12-12T07:11:08.762Z,3.48
2022-12-12T07:13:36.207Z,3.47
2022-12-12T07:16:03.488Z,3.49
2022-12-12T07:18:30.655Z,3.54
2022-12-12T07:20:57.955Z,3.58
2022-12-12T07:23:25.126Z,3.57
2022-12-12T07:25:52.124Z,3.52
2022-12-12T07:28:46.487Z,3.40
2022-12-12T07:31:17.306Z,3.41
2022-12-12T07:33:45.008Z,3.42
2022-12-12T07:36:12.720Z,3.45
2022-12-12T07:38:40.527Z,3.46
2022-12-12T07:41:13.679Z,3.47
2022-12-12T07:43:44.192Z,3.43
2022-12-12T07:46:19.970Z,3.37
2022-12-12T07:48:47.205Z,3.30
2022-12-12T07:51:15.312Z,3.29
2022-12-12T07:53:42.813Z,3.29
2022-12-12T07:56:12.985Z,3.25
2022-12-12T07:58:39.998Z,3.24
2022-12-12T08:01:15.505Z,3.18
2022-12-12T08:03:43.199Z,3.15
2022-12-12T08:06:10.515Z,3.13
2022-12-12T08:08:37.785Z,3.13
2022-12-12T08:11:07.573Z,3.16
2022-12-12T08:13:36.612Z,3.21
2022-12-12T08:16:06.778Z,3.23
2022-12-12T08:18:35.223Z,3.29
2022-12-12T08:21:02.232Z,3.40
2022-12-12T08:23:29.209Z,3.48
2022-12-12T08:25:56.358Z,3.55
2022-12-12T08:28:23.339Z,3.62
2022-12-12T08:30:51.565Z,3.70
2022-12-12T08:33:18.966Z,3.76
2022-12-12T08:35:47.255Z,3.82
2022-12-12T08:38:14.631Z,3.87
2022-12-12T08:40:41.874Z,3.93
2022-12-12T08:43:09.227Z,3.96
2022-12-12T08:45:37.794Z,3.96
2022-12-12T08:48:06.513Z,3.93
2022-12-12T08:50:33.889Z,3.92
2022-12-12T08:53:02.230Z,3.87
2022-12-12T08:55:30.264Z,3.81
2022-12-12T08:57:57.221Z,3.83
2022-12-12T09:00:24.251Z,3.84
2022-12-12T09:02:51.514Z,3.92
2022-12-12T09:05:18.589Z,4.02
2022-12-12T09:07:45.678Z,4.09
2022-12-12T09:10:14.069Z,4.17
2022-12-12T09:12:42.020Z,4.16
2022-12-12T09:15:10.499Z,4.15
2022-12-12T09:17:37.711Z,4.16
2022-12-12T09:20:06.473Z,4.20
2022-12-12T09:22:33.482Z,4.26
2022-12-12T09:25:00.603Z,4.35
2022-12-12T09:27:29.174Z,4.40
2022-12-12T09:29:56.468Z,4.45
2022-12-12T09:32:24.866Z,4.49
2022-12-12T09:34:52.149Z,4.45
2022-12-12T09:37:19.348Z,4.41
2022-12-12T09:39:46.381Z,4.43
2022-12-12T09:42:23.378Z,4.48
2022-12-12T09:44:56.962Z,4.57
2022-12-12T09:47:36.707Z,4.68
2022-12-12T09:50:16.109Z,4.76
2022-12-12T09:52:44.492Z,4.81
2022-12-12T09:55:33.907Z,4.82
2022-12-12T09:58:14.051Z,4.87
2022-12-12T10:00:50.003Z,4.92
2022-12-12T10:03:44.550Z,4.98
2022-12-12T10:06:36.560Z,5.09
2022-12-12T10:09:24.806Z,5.20
2022-12-12T10:11:55.094Z,5.32
2022-12-12T10:14:34.411Z,5.39
2022-12-12T10:17:08.999Z,5.46
2022-12-12T10:19:48.060Z,5.47
2022-12-12T10:22:29.074Z,5.45
2022-12-12T10:25:06.203Z,5.43
2022-12-12T10:27:33.583Z,5.32
2022-12-12T10:30:16.089Z,5.32
2022-12-12T10:33:04.933Z,5.36
2022-12-12T10:35:47.527Z,5.43
2022-12-12T10:38:42.574Z,5.47
2022-12-12T10:41:23.876Z,5.51
2022-12-12T10:44:01.733Z,5.55
2022-12-12T10:46:38.652Z,5.59
2022-12-12T10:49:16.222Z,5.63
2022-12-12T10:51:46.763Z,5.69
2022-12-12T10:54:20.222Z,5.76
2022-12-12T10:57:14.132Z,5.87
2022-12-12T10:59:50.098Z,5.97
2022-12-12T11:02:34.881Z,6.04
2022-12-12T11:05:16.658Z,6.10
2022-12-12T11:07:48.401Z,6.13
2022-12-12T11:10:31.975Z,6.16
2022-12-12T11:13:13.731Z,6.22
2022-12-12T11:15:49.366Z,6.33
2022-12-12T11:18:20.046Z,6.38
2022-12-12T11:20:52.396Z,6.45
2022-12-12T11:23:24.503Z,6.48
2022-12-12T11:25:57.796Z,6.51
2022-12-12T11:28:31.305Z,6.56
2022-12-12T11:31:04.324Z,6.61
2022-12-12T11:33:38.095Z,6.69
2022-12-12T11:36:08.285Z,7.05
2022-12-12T11:38:41.017Z,7.63
2022-12-12T11:41:11.899Z,7.97
2022-12-12T11:43:55.775Z,8.22
2022-12-12T11:46:26.568Z,8.34
2022-12-12T11:49:02.311Z,8.36
2022-12-12T11:51:40.444Z,8.16
2022-12-12T11:54:14.312Z,8.04
2022-12-12T11:56:49.930Z,7.88
2022-12-12T11:59:46.234Z,7.72
2022-12-12T12:03:17.668Z,7.54
2022-12-12T12:06:12.782Z,7.55
2022-12-12T12:09:13.928Z,7.66
2022-12-12T12:11:54.554Z,7.72
2022-12-12T12:14:52.056Z,7.64
2022-12-12T12:17:36.179Z,7.56
2022-12-12T12:20:16.905Z,7.47
2022-12-12T12:23:03.714Z,7.30
2022-12-12T12:25:49.185Z,7.13
2022-12-12T12:28:45.364Z,6.97
2022-12-12T12:31:20.759Z,6.82
2022-12-12T12:34:08.704Z,6.65
2022-12-12T12:36:51.871Z,6.53
2022-12-12T12:39:52.080Z,6.52
2022-12-12T12:42:37.799Z,6.57
2022-12-12T12:45:16.316Z,6.65
2022-12-12T12:47:52.457Z,6.73
2022-12-12T12:50:24.941Z,6.77
2022-12-12T12:52:59.255Z,6.77
2022-12-12T12:55:35.189Z,6.66
2022-12-12T12:58:07.019Z,6.58
2022-12-12T13:00:36.703Z,6.51
2022-12-12T13:03:13.407Z,6.55
2022-12-12T13:05:46.115Z,6.63
2022-12-12T13:08:24.411Z,6.57
2022-12-12T13:10:58.582Z,6.56
2022-12-12T13:13:30.640Z,6.48
2022-12-12T13:16:05.557Z,6.40
2022-12-12T13:18:45.066Z,6.39
2022-12-12T13:21:24.031Z,6.43
2022-12-12T13:24:02.965Z,6.50
2022-12-12T13:26:44.771Z,6.53
2022-12-12T13:29:32.754Z,6.52
2022-12-12T13:32:49.570Z,6.50
2022-12-12T13:35:25.458Z,6.54
2022-12-12T13:37:58.439Z,6.59
2022-12-12T13:40:33.688Z,6.64
2022-12-12T13:43:09.430Z,6.69
2022-12-12T13:45:45.519Z,6.67
2022-12-12T13:48:46.537Z,6.65
2022-12-12T13:51:39.275Z,6.57
2022-12-12T13:54:53.575Z,6.53
2022-12-12T13:57:33.388Z,6.51
2022-12-12T14:00:29.958Z,6.53
2022-12-12T14:03:06.169Z,6.57
2022-12-12T14:05:39.760Z,6.61
2022-12-12T14:08:21.511Z,6.61
2022-12-12T14:11:01.134Z,6.58
2022-12-12T14:13:42.873Z,6.53
2022-12-12T14:16:25.256Z,6.41
2022-12-12T14:19:07.298Z,6.36
2022-12-12T14:21:45.787Z,6.33
2022-12-12T14:25:06.249Z,6.34
2022-12-12T14:28:29.541Z,6.35
2022-12-12T14:31:13.931Z,6.35
2022-12-12T14:34:07.338Z,6.35
2022-12-12T14:37:03.803Z,6.38
2022-12-12T14:40:10.737Z,6.39
2022-12-12T14:43:19.135Z,6.44
2022-12-12T14:45:38.990Z,6.44
2022-12-12T14:48:21.330Z,6.40
2022-12-12T14:50:56.378Z,6.39
2022-12-12T14:53:31.785Z,6.34
2022-12-12T14:56:03.366Z,6.35
2022-12-12T14:58:36.607Z,6.34
2022-12-12T15:01:06.075Z,6.31
2022-12-12T15:03:40.274Z,6.31
2022-12-12T15:06:33.116Z,6.32
2022-12-12T15:09:24.476Z,6.34
2022-12-12T15:11:54.390Z,6.38
2022-12-12T15:14:26.264Z,6.36
2022-12-12T15:17:01.409Z,6.33
2022-12-12T15:19:34.937Z,6.29
2022-12-12T15:22:10.774Z,6.27
2022-12-12T15:24:39.893Z,6.25
2022-12-12T15:27:07.349Z,6.19
2022-12-12T15:29:37.480Z,6.09
2022-12-12T15:32:15.648Z,5.98
2022-12-12T15:34:45.773Z,5.92
2022-12-12T15:37:28.451Z,5.87
2022-12-12T15:40:17.477Z,5.87
2022-12-12T15:42:50.868Z,5.85
2022-12-12T15:45:25.585Z,5.84
2022-12-12T15:47:54.425Z,5.87
2022-12-12T15:50:25.790Z,5.87
2022-12-12T15:53:20.841Z,5.75
2022-12-12T15:56:00.549Z,5.70
2022-12-12T15:58:30.917Z,5.71
2022-12-12T16:01:20.399Z,5.74
2022-12-12T16:03:59.339Z,5.71
2022-12-12T16:06:28.805Z,5.69
2022-12-12T16:09:08.245Z,5.64
2022-12-12T16:11:45.183Z,5.61
2022-12-12T16:14:39.689Z,5.54
2022-12-12T16:17:13.630Z,5.48
2022-12-12T16:19:52.972Z,5.45
2022-12-12T16:22:36.190Z,5.43
2022-12-12T16:25:17.520Z,5.43
2022-12-12T16:27:46.824Z,5.43
2022-12-12T16:30:16.645Z,5.41
2022-12-12T16:32:44.175Z,5.35
2022-12-12T16:35:15.790Z,5.29
2022-12-12T16:37:42.835Z,5.23
2022-12-12T16:40:16.500Z,5.23
2022-12-12T16:42:59.346Z,5.26
2022-12-12T16:45:26.813Z,5.32
2022-12-12T16:47:53.970Z,5.33
2022-12-12T16:50:21.233Z,5.30
2022-12-12T16:52:48.211Z,5.29
2022-12-12T16:55:22.293Z,5.30
2022-12-12T16:57:49.344Z,5.35
2022-12-12T17:00:17.456Z,5.38
2022-12-12T17:02:44.727Z,5.36
2022-12-12T17:05:17.711Z,5.29
2022-12-12T17:07:45.109Z,5.22
2022-12-12T17:10:12.770Z,5.13
2022-12-12T17:12:41.416Z,5.07
2022-12-12T17:15:22.025Z,5.01
2022-12-12T17:18:00.453Z,4.97
2022-12-12T17:20:37.516Z,4.90
2022-12-12T17:25:50.432Z,4.87
2022-12-12T17:28:20.008Z,4.89
2022-12-12T17:30:49.875Z,4.87
2022-12-12T17:33:18.436Z,4.82
2022-12-12T17:36:14.710Z,4.72
2022-12-12T17:39:15.247Z,4.66
2022-12-12T17:41:46.077Z,4.64
2022-12-12T17:45:15.626Z,4.63
2022-12-12T17:48:38.980Z,4.61
2022-12-12T17:51:23.838Z,4.59
2022-12-12T17:53:52.624Z,4.55
2022-12-12T17:56:22.862Z,4.55
2022-12-12T17:58:51.047Z,4.49
2022-12-12T18:01:22.363Z,4.51
2022-12-12T18:03:50.442Z,4.53
2022-12-12T18:06:21.247Z,4.51
2022-12-12T18:08:49.229Z,4.46
2022-12-12T18:11:19.807Z,4.40
2022-12-12T18:13:50.247Z,4.38
2022-12-12T18:16:19.189Z,4.35
2022-12-12T18:18:46.512Z,4.36
2022-12-12T18:24:30.762Z,4.31
2022-12-12T18:27:01.172Z,4.22
2022-12-12T18:29:28.276Z,4.16
2022-12-12T18:31:56.916Z,4.10
2022-12-12T18:34:25.136Z,4.03
2022-12-12T18:36:52.511Z,3.99
2022-12-12T18:39:19.876Z,3.98
2022-12-12T18:41:46.895Z,3.99
2022-12-12T18:44:15.762Z,4.00
2022-12-12T18:46:44.034Z,4.02
2022-12-12T18:49:15.554Z,4.04
2022-12-12T18:51:44.168Z,4.07
2022-12-12T18:54:16.084Z,4.08
2022-12-12T18:56:45.212Z,4.11
2022-12-12T18:59:16.803Z,4.14
2022-12-12T19:01:51.465Z,4.16
2022-12-12T19:04:23.390Z,4.19
2022-12-12T19:06:51.455Z,4.26
2022-12-12T19:09:19.941Z,4.34
2022-12-12T19:12:00.040Z,4.39
2022-12-12T19:14:59.761Z,4.40
2022-12-12T19:17:26.254Z,4.43
2022-12-12T19:19:55.294Z,4.44
2022-12-12T19:22:44.256Z,4.45
2022-12-12T19:25:29.972Z,4.43
2022-12-12T19:28:00.454Z,4.38
2022-12-12T19:30:29.382Z,4.36
2022-12-12T19:32:56.823Z,4.36
2022-12-12T19:35:25.465Z,4.36
2022-12-12T19:37:52.562Z,4.33
2022-12-12T19:40:19.716Z,4.26
2022-12-12T19:42:46.754Z,4.21
2022-12-12T19:45:14.669Z,4.17
2022-12-12T19:47:41.717Z,4.13
2022-12-12T19:50:09.672Z,4.08
2022-12-12T19:52:38.036Z,4.07
2022-12-12T19:55:06.434Z,4.06
2022-12-12T19:57:33.438Z,4.04
2022-12-12T20:00:00.377Z,4.06
2022-12-12T20:02:27.481Z,4.04
2022-12-12T20:04:54.511Z,4.02
2022-12-12T20:07:21.546Z,4.01
2022-12-12T20:09:49.996Z,3.98
2022-12-12T20:12:16.955Z,3.98
2022-12-12T20:14:44.135Z,3.99
2022-12-12T20:17:11.519Z,4.00
2022-12-12T20:19:38.517Z,4.02
2022-12-12T20:22:05.511Z,4.01
2022-12-12T20:24:33.878Z,3.99
2022-12-12T20:27:05.583Z,4.03
2022-12-12T20:29:32.788Z,4.11
2022-12-12T20:32:01.160Z,4.21
2022-12-12T20:34:28.691Z,4.27
2022-12-12T20:36:55.950Z,4.26
2022-12-12T20:39:25.705Z,4.17
2022-12-12T20:41:53.836Z,4.04
2022-12-12T20:44:24.029Z,3.94
2022-12-12T20:46:51.939Z,3.91
2022-12-12T20:49:22.229Z,3.93
2022-12-12T20:51:57.871Z,3.95
2022-12-12T20:54:27.211Z,3.93
2022-12-12T20:56:54.876Z,3.89
2022-12-12T20:59:24.127Z,3.96
2022-12-12T21:01:51.426Z,4.05
2022-12-12T21:04:18.698Z,4.07
2022-12-12T21:06:50.940Z,4.06
2022-12-12T21:09:25.047Z,4.05
2022-12-12T21:11:54.829Z,4.09
2022-12-12T21:14:24.207Z,4.15
2022-12-12T21:16:51.708Z,4.21
2022-12-12T21:19:18.915Z,4.22
2022-12-12T21:21:46.691Z,4.23
2022-12-12T21:24:16.720Z,4.17
2022-12-12T21:26:44.800Z,4.10
2022-12-12T21:29:12.689Z,4.01
2022-12-12T21:31:49.916Z,3.91
2022-12-12T21:34:19.082Z,3.83
2022-12-12T21:36:46.315Z,3.79
2022-12-12T21:39:13.469Z,3.75
2022-12-12T21:41:43.634Z,3.72
2022-12-12T21:44:10.785Z,3.71
2022-12-12T21:46:41.533Z,3.66
2022-12-12T21:49:19.677Z,3.61
2022-12-12T21:51:46.918Z,3.52
2022-12-12T21:54:15.447Z,3.46
2022-12-12T21:56:43.302Z,3.38
2022-12-12T21:59:10.959Z,3.32
2022-12-12T22:01:37.960Z,3.33
2022-12-12T22:04:05.588Z,3.36
2022-12-12T22:06:36.099Z,3.29
2022-12-12T22:09:07.405Z,3.17
2022-12-12T22:11:41.437Z,3.14
2022-12-12T22:14:17.349Z,3.14
2022-12-12T22:16:44.654Z,3.09
2022-12-12T22:19:15.308Z,3.06
2022-12-12T22:21:45.810Z,3.09
2022-12-12T22:24:13.132Z,3.19
2022-12-12T22:26:42.799Z,3.26
2022-12-12T22:29:13.671Z,3.34
2022-12-12T22:31:41.572Z,3.31
2022-12-12T22:34:14.025Z,3.23
2022-12-12T22:36:43.180Z,3.20
2022-12-12T22:39:14.817Z,3.17
2022-12-12T22:41:41.758Z,3.15
2022-12-12T22:44:11.972Z,3.17
2022-12-12T22:46:43.678Z,3.22
2022-12-12T22:49:13.694Z,3.26
2022-12-12T22:51:41.423Z,3.30
2022-12-12T22:54:09.882Z,3.34
2022-12-12T22:56:39.804Z,3.40
2022-12-12T22:59:08.118Z,3.47
2022-12-12T23:01:35.718Z,3.51
2022-12-12T23:04:04.416Z,3.54
2022-12-12T23:06:35.550Z,3.53
2022-12-12T23:09:06.461Z,3.53
2022-12-12T23:11:36.475Z,3.49
2022-12-12T23:14:07.323Z,3.46
2022-12-12T23:16:35.576Z,3.41
2022-12-12T23:19:04.791Z,3.32
2022-12-12T23:21:32.981Z,3.21
2022-12-12T23:23:59.938Z,3.08
2022-12-12T23:26:30.120Z,3.01
2022-12-12T23:28:59.813Z,2.94
2022-12-12T23:31:30.148Z,2.89
2022-12-12T23:33:59.815Z,2.92
2022-12-12T23:36:28.287Z,2.93
2022-12-12T23:38:55.735Z,2.87
2022-12-12T23:41:23.760Z,2.83
2022-12-12T23:43:51.491Z,2.79
2022-12-12T23:46:33.302Z,2.73
2022-12-12T23:49:03.885Z,2.62
2022-12-12T23:51:33.414Z,2.56
2022-12-12T23:54:02.823Z,2.54
2022-12-12T23:56:30.393Z,2.56
2022-12-12T23:58:59.317Z,2.64
